Time;durP1;ratioP1;P1;durP2;ratioP2;P2;SDS_P1;SDS_P2;PMS_P1;PMS_P2;Temp;Humidity;BMP_temperature;BMP_pressure;BME280_temperature;BME280_humidity;BME280_pressure;Samples;Min_cycle;Max_cycle;Signal;HPM_P1;HPM_P2
2023/07/17 00:00:56;;;;;;;;;;;16.00;65.10;;;;;;4124052;28;19914;-86
2023/07/17 00:02:58;;;;;;;;;;;15.90;64.40;;;;;;4127501;28;19934;-86
2023/07/17 00:04:58;;;;;;;;;;;16.00;64.40;;;;;;4144070;28;19937;-88
2023/07/17 00:06:59;;;;;;;;;;;15.90;64.60;;;;;;4136554;28;19928;-87
2023/07/17 00:08:59;;;;;;;;;;;15.90;64.60;;;;;;4126242;28;19984;-88
2023/07/17 00:11:00;;;;;;;;;;;15.90;65.00;;;;;;4125614;28;20390;-86
2023/07/17 00:13:01;;;;;;;;;;;16.00;65.10;;;;;;4107352;28;19941;-87
2023/07/17 00:15:05;;;;;;;;;;;15.90;64.60;;;;;;4138101;28;19928;-87
2023/07/17 00:17:05;;;;;;;;;;;15.90;64.50;;;;;;4126227;28;19946;-86
2023/07/17 00:19:06;;;;;;;;;;;15.90;64.60;;;;;;4107274;28;19968;-87
2023/07/17 00:21:06;;;;;;;;;;;16.00;64.70;;;;;;4124951;28;20138;-87
2023/07/17 00:23:07;;;;;;;;;;;15.90;64.70;;;;;;4124221;28;19972;-87
2023/07/17 00:25:08;;;;;;;;;;;15.90;64.70;;;;;;4136818;28;21962;-87
2023/07/17 00:27:09;;;;;;;;;;;15.90;64.40;;;;;;4122428;28;19980;-87
2023/07/17 00:29:20;;;;;;;;;;;15.80;64.40;;;;;;4122052;28;19950;-87
2023/07/17 00:31:21;;;;;;;;;;;15.80;64.20;;;;;;4125282;28;19926;-87
2023/07/17 00:33:21;;;;;;;;;;;15.80;64.30;;;;;;4125342;28;20414;-86
2023/07/17 00:35:22;;;;;;;;;;;15.80;64.20;;;;;;4115691;28;19918;-86
2023/07/17 00:37:22;;;;;;;;;;;15.80;64.30;;;;;;4120011;28;19917;-85
2023/07/17 00:39:23;;;;;;;;;;;15.80;64.20;;;;;;4121124;28;21335;-87
2023/07/17 00:41:24;;;;;;;;;;;15.80;64.20;;;;;;4125289;28;19922;-86
2023/07/17 00:43:44;;;;;;;;;;;15.80;64.20;;;;;;4125988;28;19932;-86
2023/07/17 00:46:05;;;;;;;;;;;15.70;64.20;;;;;;4124831;28;19957;-87
2023/07/17 00:48:25;;;;;;;;;;;15.70;64.20;;;;;;4126205;28;19921;-87
2023/07/17 00:50:27;;;;;;;;;;;15.70;64.10;;;;;;4126362;28;20554;-87
2023/07/17 00:52:28;;;;;;;;;;;15.70;64.20;;;;;;4126276;28;19922;-86
2023/07/17 00:54:29;;;;;;;;;;;15.70;64.20;;;;;;4129370;28;19922;-86
2023/07/17 00:56:30;;;;;;;;;;;15.60;64.10;;;;;;4127698;28;19929;-86
2023/07/17 00:58:30;;;;;;;;;;;15.70;64.10;;;;;;4126367;28;20090;-86
2023/07/17 01:00:31;;;;;;;;;;;15.60;64.10;;;;;;4121013;28;20370;-86
2023/07/17 01:02:32;;;;;;;;;;;15.60;63.80;;;;;;4122091;28;19922;-86
2023/07/17 01:04:33;;;;;;;;;;;15.60;63.90;;;;;;4127495;28;20363;-86
2023/07/17 01:06:38;;;;;;;;;;;15.60;64.00;;;;;;4139001;28;19979;-86
2023/07/17 01:08:40;;;;;;;;;;;15.60;64.10;;;;;;4142698;28;19928;-86
2023/07/17 01:10:40;;;;;;;;;;;15.50;64.10;;;;;;4123045;28;19922;-87
2023/07/17 01:12:41;;;;;;;;;;;15.50;64.10;;;;;;4125477;28;20329;-86
2023/07/17 01:14:41;;;;;;;;;;;15.50;64.20;;;;;;4127674;28;20306;-85
2023/07/17 01:16:43;;;;;;;;;;;15.50;64.20;;;;;;4122484;28;20000;-86
2023/07/17 01:18:44;;;;;;;;;;;15.50;64.30;;;;;;4125114;28;20032;-87
2023/07/17 01:20:44;;;;;;;;;;;15.50;64.40;;;;;;4139207;28;20033;-86
2023/07/17 01:22:59;;;;;;;;;;;15.50;64.40;;;;;;4128744;28;19917;-86
2023/07/17 01:24:59;;;;;;;;;;;15.50;64.30;;;;;;4124016;28;19956;-86
2023/07/17 01:27:00;;;;;;;;;;;15.50;64.50;;;;;;4124517;28;20582;-88
2023/07/17 01:29:01;;;;;;;;;;;15.40;64.50;;;;;;4124527;28;19918;-87
2023/07/17 01:31:01;;;;;;;;;;;15.40;64.40;;;;;;4124369;28;20399;-87
2023/07/17 01:33:02;;;;;;;;;;;15.40;64.40;;;;;;4127989;28;20390;-86
2023/07/17 01:35:03;;;;;;;;;;;15.40;64.80;;;;;;4124126;28;19918;-87
2023/07/17 01:37:04;;;;;;;;;;;15.40;64.80;;;;;;4128580;28;19902;-86
2023/07/17 01:39:05;;;;;;;;;;;15.40;64.70;;;;;;4122930;28;20296;-87
2023/07/17 01:41:06;;;;;;;;;;;15.40;64.80;;;;;;4123461;28;19928;-86
2023/07/17 01:43:06;;;;;;;;;;;15.40;64.70;;;;;;4124687;28;20405;-87
2023/07/17 01:45:07;;;;;;;;;;;15.40;64.60;;;;;;4125436;28;20503;-86
2023/07/17 01:47:08;;;;;;;;;;;15.30;64.60;;;;;;4125821;28;19924;-86
2023/07/17 01:49:08;;;;;;;;;;;15.30;64.90;;;;;;4124575;28;19922;-86
2023/07/17 01:51:09;;;;;;;;;;;15.40;64.90;;;;;;4126303;28;20228;-86
2023/07/17 01:53:10;;;;;;;;;;;15.30;64.80;;;;;;4126113;28;19988;-86
2023/07/17 01:55:10;;;;;;;;;;;15.30;65.00;;;;;;4125972;28;19913;-87
2023/07/17 01:57:11;;;;;;;;;;;15.30;64.90;;;;;;4121568;28;19921;-87
2023/07/17 01:59:11;;;;;;;;;;;15.30;65.00;;;;;;4123055;28;19925;-87
2023/07/17 02:01:12;;;;;;;;;;;15.30;65.00;;;;;;4127955;28;19918;-86
2023/07/17 02:03:12;;;;;;;;;;;15.30;65.20;;;;;;4122309;28;20227;-86
2023/07/17 02:05:13;;;;;;;;;;;15.40;65.10;;;;;;4125577;28;20425;-86
2023/07/17 02:07:13;;;;;;;;;;;15.30;65.30;;;;;;4138561;28;19937;-86
2023/07/17 02:09:14;;;;;;;;;;;15.30;65.40;;;;;;4124832;28;20583;-86
2023/07/17 02:11:15;;;;;;;;;;;15.30;65.40;;;;;;4127818;28;20066;-86
2023/07/17 02:13:15;;;;;;;;;;;15.30;65.20;;;;;;4124171;28;19945;-87
2023/07/17 02:15:16;;;;;;;;;;;15.30;65.50;;;;;;4122399;28;19918;-87
2023/07/17 02:17:17;;;;;;;;;;;15.30;65.50;;;;;;4125057;28;19914;-86
2023/07/17 02:19:18;;;;;;;;;;;15.40;65.80;;;;;;4121928;28;19918;-86
2023/07/17 02:21:19;;;;;;;;;;;15.30;65.50;;;;;;4123406;28;19965;-86
2023/07/17 02:23:20;;;;;;;;;;;15.30;66.10;;;;;;4125621;28;19921;-86
2023/07/17 02:25:20;;;;;;;;;;;15.30;66.10;;;;;;4123562;28;19929;-87
2023/07/17 02:27:21;;;;;;;;;;;15.40;66.20;;;;;;4138700;28;20986;-86
2023/07/17 02:29:21;;;;;;;;;;;15.30;66.00;;;;;;4124520;28;19921;-87
2023/07/17 02:31:22;;;;;;;;;;;15.30;65.90;;;;;;4123424;28;19944;-87
2023/07/17 02:33:23;;;;;;;;;;;15.30;65.70;;;;;;4126524;28;19918;-87
2023/07/17 02:35:23;;;;;;;;;;;15.40;65.70;;;;;;4123635;28;19973;-86
2023/07/17 02:37:25;;;;;;;;;;;15.30;65.90;;;;;;4125922;28;19924;-86
2023/07/17 02:39:25;;;;;;;;;;;15.30;66.70;;;;;;4123165;28;19922;-87
2023/07/17 02:41:26;;;;;;;;;;;15.40;66.40;;;;;;4122534;28;20383;-86
2023/07/17 02:43:27;;;;;;;;;;;15.40;66.40;;;;;;4138707;28;20350;-86
2023/07/17 02:45:27;;;;;;;;;;;15.40;66.20;;;;;;4123273;28;20420;-86
2023/07/17 02:47:30;;;;;;;;;;;15.30;66.00;;;;;;4138120;28;20022;-86
2023/07/17 02:49:30;;;;;;;;;;;15.30;66.30;;;;;;4126891;28;19918;-87
2023/07/17 02:51:31;;;;;;;;;;;15.40;66.20;;;;;;4137605;28;19973;-86
2023/07/17 02:53:32;;;;;;;;;;;15.30;66.20;;;;;;4162596;28;19937;-88
2023/07/17 02:55:34;;;;;;;;;;;15.40;65.80;;;;;;4130619;28;19940;-87
2023/07/17 02:57:38;;;;;;;;;;;15.40;66.50;;;;;;4137098;28;20003;-87
2023/07/17 02:59:59;;;;;;;;;;;15.50;66.60;;;;;;4121926;28;19920;-87
2023/07/17 03:02:20;;;;;;;;;;;15.40;66.40;;;;;;4122596;28;19929;-86
2023/07/17 03:04:21;;;;;;;;;;;15.40;66.00;;;;;;4136150;28;19918;-86
2023/07/17 03:06:41;;;;;;;;;;;15.50;66.00;;;;;;4123363;28;19924;-87
2023/07/17 03:09:02;;;;;;;;;;;15.40;66.00;;;;;;4123090;28;19917;-86
2023/07/17 03:11:23;;;;;;;;;;;15.40;66.20;;;;;;4123210;28;20040;-86
2023/07/17 03:13:43;;;;;;;;;;;15.50;66.20;;;;;;4121363;28;19972;-86
2023/07/17 03:16:04;;;;;;;;;;;15.50;66.00;;;;;;4124599;28;19973;-86
2023/07/17 03:18:27;;;;;;;;;;;15.40;65.90;;;;;;4124790;28;20031;-88
2023/07/17 03:20:48;;;;;;;;;;;15.40;66.00;;;;;;4124405;28;19922;-86
2023/07/17 03:23:08;;;;;;;;;;;15.50;66.00;;;;;;4124025;28;19921;-86
2023/07/17 03:25:09;;;;;;;;;;;15.50;66.00;;;;;;4122953;28;19983;-85
2023/07/17 03:27:10;;;;;;;;;;;15.50;65.90;;;;;;4122015;28;20395;-89
2023/07/17 03:29:10;;;;;;;;;;;15.40;66.30;;;;;;4126370;28;19925;-86
2023/07/17 03:31:11;;;;;;;;;;;15.50;66.30;;;;;;4122717;28;20612;-86
2023/07/17 03:33:12;;;;;;;;;;;15.50;66.10;;;;;;4121333;28;20295;-86
2023/07/17 03:35:12;;;;;;;;;;;15.50;66.00;;;;;;4123570;28;19914;-86
2023/07/17 03:37:13;;;;;;;;;;;15.50;66.00;;;;;;4123930;28;19922;-85
2023/07/17 03:39:13;;;;;;;;;;;15.50;65.90;;;;;;4125045;28;19914;-86
2023/07/17 03:41:17;;;;;;;;;;;15.60;65.80;;;;;;4136820;28;20020;-85
2023/07/17 03:43:18;;;;;;;;;;;15.50;65.80;;;;;;4123807;28;19920;-85
2023/07/17 03:45:18;;;;;;;;;;;15.60;65.80;;;;;;4139567;28;20011;-86
2023/07/17 03:47:19;;;;;;;;;;;15.60;66.10;;;;;;4137659;28;19921;-87
2023/07/17 03:49:20;;;;;;;;;;;15.60;65.90;;;;;;4123494;28;19917;-86
2023/07/17 03:51:20;;;;;;;;;;;15.60;65.70;;;;;;4121298;28;19922;-86
2023/07/17 03:53:21;;;;;;;;;;;15.60;65.70;;;;;;4121380;28;19918;-86
2023/07/17 03:55:22;;;;;;;;;;;15.60;66.10;;;;;;4125423;28;19922;-86
2023/07/17 03:57:22;;;;;;;;;;;15.60;66.00;;;;;;4120577;28;19918;-86
2023/07/17 03:59:24;;;;;;;;;;;15.70;66.10;;;;;;4119756;28;20302;-86
2023/07/17 04:01:24;;;;;;;;;;;15.60;66.00;;;;;;4137064;28;20385;-85
2023/07/17 04:03:25;;;;;;;;;;;15.60;66.30;;;;;;4122782;28;19944;-86
2023/07/17 04:05:25;;;;;;;;;;;15.60;66.90;;;;;;4105553;28;19918;-86
2023/07/17 04:07:26;;;;;;;;;;;15.70;66.40;;;;;;4124968;28;20000;-86
2023/07/17 04:09:30;;;;;;;;;;;15.70;66.90;;;;;;4120644;28;19984;-86
2023/07/17 04:11:30;;;;;;;;;;;15.60;66.70;;;;;;4121941;28;19922;-86
2023/07/17 04:13:31;;;;;;;;;;;15.70;67.00;;;;;;4121772;28;21338;-85
2023/07/17 04:15:34;;;;;;;;;;;15.70;67.10;;;;;;4116964;28;21085;-86
2023/07/17 04:17:35;;;;;;;;;;;15.70;67.20;;;;;;4122073;28;19985;-86
2023/07/17 04:19:36;;;;;;;;;;;15.70;66.80;;;;;;4118077;28;19917;-86
2023/07/17 04:21:36;;;;;;;;;;;15.70;67.20;;;;;;4124285;28;19918;-86
2023/07/17 04:23:37;;;;;;;;;;;15.70;66.80;;;;;;4123971;28;19936;-85
2023/07/17 04:25:39;;;;;;;;;;;15.80;67.10;;;;;;4138374;28;19933;-87
2023/07/17 04:27:39;;;;;;;;;;;15.80;66.80;;;;;;4124166;28;19914;-86
2023/07/17 04:29:42;;;;;;;;;;;15.80;66.50;;;;;;4119815;28;19918;-86
2023/07/17 04:31:48;;;;;;;;;;;15.80;66.40;;;;;;4120735;28;19921;-86
2023/07/17 04:34:08;;;;;;;;;;;15.90;66.50;;;;;;4122014;28;19930;-86
2023/07/17 04:36:29;;;;;;;;;;;15.90;66.70;;;;;;4121855;28;19922;-86
2023/07/17 04:38:49;;;;;;;;;;;15.90;66.60;;;;;;4124061;28;19925;-87
2023/07/17 04:41:10;;;;;;;;;;;15.90;66.20;;;;;;4122980;28;20008;-86
2023/07/17 04:43:30;;;;;;;;;;;15.90;66.30;;;;;;4127045;28;19952;-86
2023/07/17 04:45:51;;;;;;;;;;;15.90;66.30;;;;;;4136389;28;19925;-88
2023/07/17 04:48:12;;;;;;;;;;;15.90;66.30;;;;;;4127299;28;19918;-86
2023/07/17 04:50:32;;;;;;;;;;;15.90;66.40;;;;;;4127163;28;19922;-86
2023/07/17 04:52:33;;;;;;;;;;;15.90;66.30;;;;;;4125258;28;20454;-87
2023/07/17 04:54:33;;;;;;;;;;;15.90;66.30;;;;;;4124451;28;20815;-85
2023/07/17 04:56:34;;;;;;;;;;;15.90;66.10;;;;;;4118803;28;19921;-86
2023/07/17 04:58:35;;;;;;;;;;;16.00;66.10;;;;;;4120529;28;19913;-86
2023/07/17 05:00:35;;;;;;;;;;;16.00;66.60;;;;;;4121263;28;19969;-85
2023/07/17 05:02:36;;;;;;;;;;;16.10;67.40;;;;;;4107356;28;19918;-87
2023/07/17 05:04:37;;;;;;;;;;;16.10;66.60;;;;;;4132683;28;20411;-88
2023/07/17 05:06:37;;;;;;;;;;;16.10;66.60;;;;;;4121980;28;20055;-87
2023/07/17 05:08:39;;;;;;;;;;;16.10;66.30;;;;;;4122433;28;19918;-87
2023/07/17 05:10:40;;;;;;;;;;;16.10;66.40;;;;;;4123028;28;19980;-87
2023/07/17 05:12:41;;;;;;;;;;;16.20;66.20;;;;;;4122566;28;19968;-88
2023/07/17 05:14:41;;;;;;;;;;;16.20;66.80;;;;;;4124043;28;19937;-87
2023/07/17 05:16:42;;;;;;;;;;;16.20;66.50;;;;;;4121990;28;19972;-88
2023/07/17 05:18:43;;;;;;;;;;;16.20;66.50;;;;;;4123814;28;19914;-86
2023/07/17 05:20:47;;;;;;;;;;;16.20;66.50;;;;;;4121158;28;19922;-89
2023/07/17 05:22:47;;;;;;;;;;;16.20;66.40;;;;;;4138719;28;19914;-86
2023/07/17 05:24:48;;;;;;;;;;;16.30;66.30;;;;;;4136845;28;20374;-87
2023/07/17 05:26:49;;;;;;;;;;;16.30;66.20;;;;;;4121523;28;19997;-85
2023/07/17 05:28:50;;;;;;;;;;;16.30;66.20;;;;;;4128519;28;20016;-87
2023/07/17 05:30:52;;;;;;;;;;;16.40;66.30;;;;;;4125791;28;19921;-87
2023/07/17 05:32:52;;;;;;;;;;;16.40;66.20;;;;;;4124084;28;19931;-87
2023/07/17 05:34:54;;;;;;;;;;;16.40;66.30;;;;;;4123178;28;19914;-87
2023/07/17 05:36:55;;;;;;;;;;;16.50;66.40;;;;;;4123254;28;19921;-86
2023/07/17 05:38:55;;;;;;;;;;;16.50;67.00;;;;;;4135740;28;19909;-89
2023/07/17 05:41:00;;;;;;;;;;;16.60;66.70;;;;;;4139820;28;19918;-88
2023/07/17 05:43:01;;;;;;;;;;;16.60;66.60;;;;;;4143094;28;20603;-85
2023/07/17 05:45:02;;;;;;;;;;;16.70;66.70;;;;;;4138885;28;19905;-87
2023/07/17 05:47:03;;;;;;;;;;;16.70;66.60;;;;;;4144257;28;19921;-85
2023/07/17 05:49:04;;;;;;;;;;;16.70;66.60;;;;;;4153413;28;19952;-85
2023/07/17 05:51:19;;;;;;;;;;;16.70;66.60;;;;;;4111032;28;19929;-87
2023/07/17 05:53:21;;;;;;;;;;;16.80;66.70;;;;;;4124311;28;20314;-89
2023/07/17 05:55:22;;;;;;;;;;;16.80;66.90;;;;;;4118799;28;20625;-86
2023/07/17 05:57:22;;;;;;;;;;;16.80;67.10;;;;;;4136923;28;19918;-87
2023/07/17 05:59:24;;;;;;;;;;;16.90;67.10;;;;;;4122946;28;19914;-86
2023/07/17 06:01:27;;;;;;;;;;;16.90;67.30;;;;;;4119346;28;19914;-86
2023/07/17 06:03:32;;;;;;;;;;;16.90;67.30;;;;;;4134693;28;19924;-87
2023/07/17 06:05:38;;;;;;;;;;;16.90;67.30;;;;;;4124578;28;20009;-87
2023/07/17 06:07:58;;;;;;;;;;;16.90;67.60;;;;;;4127506;28;19917;-86
2023/07/17 06:10:19;;;;;;;;;;;17.00;67.40;;;;;;4121143;28;19921;-86
2023/07/17 06:12:39;;;;;;;;;;;17.10;67.30;;;;;;4120994;28;19917;-86
2023/07/17 06:15:01;;;;;;;;;;;17.10;67.60;;;;;;4123336;28;19941;-88
2023/07/17 06:17:22;;;;;;;;;;;17.20;68.00;;;;;;4126943;28;19914;-87
2023/07/17 06:19:43;;;;;;;;;;;17.30;68.90;;;;;;4124947;28;19924;-87
2023/07/17 06:22:03;;;;;;;;;;;17.40;70.40;;;;;;4117737;28;19957;-86
2023/07/17 06:24:24;;;;;;;;;;;17.50;69.70;;;;;;4122511;28;19965;-88
2023/07/17 06:26:45;;;;;;;;;;;17.60;69.80;;;;;;4124006;28;19917;-86
2023/07/17 06:29:05;;;;;;;;;;;17.70;69.90;;;;;;4123754;28;19972;-88
2023/07/17 06:31:06;;;;;;;;;;;17.90;70.20;;;;;;4117397;28;19926;-87
2023/07/17 06:33:06;;;;;;;;;;;18.00;69.90;;;;;;4121075;28;19928;-87
2023/07/17 06:35:07;;;;;;;;;;;18.10;69.10;;;;;;4123487;28;19918;-87
2023/07/17 06:37:08;;;;;;;;;;;18.20;68.80;;;;;;4123510;28;19922;-87
2023/07/17 06:39:08;;;;;;;;;;;18.20;68.50;;;;;;4125454;28;19914;-85
2023/07/17 06:41:09;;;;;;;;;;;18.30;68.20;;;;;;4137801;28;19917;-87
2023/07/17 06:43:10;;;;;;;;;;;18.40;68.00;;;;;;4047210;28;1957814;-87
2023/07/17 06:45:11;;;;;;;;;;;18.40;67.80;;;;;;4116007;28;20322;-87
2023/07/17 06:47:12;;;;;;;;;;;18.50;67.80;;;;;;4111726;28;19924;-88
2023/07/17 06:49:12;;;;;;;;;;;18.60;67.70;;;;;;4102735;28;20485;-87
2023/07/17 06:51:16;;;;;;;;;;;18.70;68.60;;;;;;4131827;28;19932;-87
2023/07/17 06:53:17;;;;;;;;;;;18.80;68.30;;;;;;4116692;28;21108;-86
2023/07/17 06:55:37;;;;;;;;;;;18.80;67.50;;;;;;4120606;28;19929;-86
2023/07/17 06:57:38;;;;;;;;;;;18.90;67.60;;;;;;4132442;28;19914;-89
2023/07/17 06:59:59;;;;;;;;;;;19.00;67.30;;;;;;4117278;28;19918;-87
2023/07/17 07:02:19;;;;;;;;;;;19.10;67.10;;;;;;4117034;28;19928;-87
2023/07/17 07:04:42;;;;;;;;;;;19.20;67.10;;;;;;4114908;28;19932;-88
2023/07/17 07:06:44;;;;;;;;;;;19.30;67.20;;;;;;4117810;28;19918;-85
2023/07/17 07:09:04;;;;;;;;;;;19.40;66.80;;;;;;4117992;28;19924;-87
2023/07/17 07:11:25;;;;;;;;;;;19.60;65.70;;;;;;4119966;28;19926;-88
2023/07/17 07:13:46;;;;;;;;;;;19.60;64.20;;;;;;4120925;28;20195;-90
2023/07/17 07:16:06;;;;;;;;;;;19.70;62.40;;;;;;4130526;28;20311;-87
2023/07/17 07:18:27;;;;;;;;;;;19.80;61.00;;;;;;4122335;28;19913;-86
2023/07/17 07:20:48;;;;;;;;;;;19.80;62.10;;;;;;4113389;28;19933;-87
2023/07/17 07:23:09;;;;;;;;;;;19.90;60.80;;;;;;4125563;28;19921;-88
2023/07/17 07:25:10;;;;;;;;;;;19.90;61.30;;;;;;4124552;28;19914;-87
2023/07/17 07:27:10;;;;;;;;;;;20.00;61.00;;;;;;4126337;28;20045;-89
2023/07/17 07:29:11;;;;;;;;;;;20.00;61.50;;;;;;4141462;28;19983;-89
2023/07/17 07:31:11;;;;;;;;;;;20.10;61.40;;;;;;4125926;28;19933;-90
2023/07/17 07:33:12;;;;;;;;;;;20.10;60.90;;;;;;4125734;28;20666;-89
2023/07/17 07:35:13;;;;;;;;;;;20.20;60.40;;;;;;4119618;28;19924;-87
2023/07/17 07:37:13;;;;;;;;;;;20.20;59.70;;;;;;4125732;28;19918;-87
2023/07/17 07:39:14;;;;;;;;;;;20.30;60.10;;;;;;4121402;28;19920;-89
2023/07/17 07:41:17;;;;;;;;;;;20.30;59.50;;;;;;4114082;28;19928;-87
2023/07/17 07:43:18;;;;;;;;;;;20.30;59.70;;;;;;4117007;28;19929;-87
2023/07/17 07:45:28;;;;;;;;;;;20.30;58.70;;;;;;4138036;28;19976;-88
2023/07/17 07:47:49;;;;;;;;;;;20.40;58.90;;;;;;4136366;28;19933;-89
2023/07/17 07:50:10;;;;;;;;;;;20.40;58.80;;;;;;4125882;28;19918;-88
2023/07/17 07:52:30;;;;;;;;;;;20.30;58.80;;;;;;4126884;28;19928;-89
2023/07/17 07:54:51;;;;;;;;;;;20.30;58.30;;;;;;4124571;28;19922;-86
2023/07/17 07:57:11;;;;;;;;;;;20.30;58.00;;;;;;4124843;28;19921;-88
2023/07/17 07:59:32;;;;;;;;;;;20.20;58.10;;;;;;4125597;28;19972;-87
2023/07/17 08:01:55;;;;;;;;;;;20.20;58.30;;;;;;4122152;28;20016;-88
2023/07/17 08:03:56;;;;;;;;;;;20.20;58.70;;;;;;4139599;28;19951;-87
2023/07/17 08:06:00;;;;;;;;;;;20.10;59.00;;;;;;4116201;28;19922;-88
2023/07/17 08:08:00;;;;;;;;;;;20.10;59.20;;;;;;4121411;28;19925;-88
2023/07/17 08:10:01;;;;;;;;;;;20.10;59.40;;;;;;4119253;28;19925;-87
2023/07/17 08:12:02;;;;;;;;;;;20.10;59.70;;;;;;4123641;28;19921;-86
2023/07/17 08:14:02;;;;;;;;;;;20.00;59.80;;;;;;4131766;28;19906;-87
2023/07/17 08:16:06;;;;;;;;;;;20.00;60.00;;;;;;4134720;28;19901;-87
2023/07/17 08:18:06;;;;;;;;;;;19.90;60.40;;;;;;4125814;28;19914;-88
2023/07/17 08:20:08;;;;;;;;;;;19.90;60.70;;;;;;4132800;28;19972;-87
2023/07/17 08:22:17;;;;;;;;;;;19.80;60.60;;;;;;4119355;28;20346;-88
2023/07/17 08:24:18;;;;;;;;;;;19.70;61.00;;;;;;4123269;28;19917;-88
2023/07/17 08:26:18;;;;;;;;;;;19.70;60.80;;;;;;4124922;28;20009;-89
2023/07/17 08:28:19;;;;;;;;;;;19.60;61.00;;;;;;4124424;28;19914;-89
2023/07/17 08:30:20;;;;;;;;;;;19.50;61.80;;;;;;4125360;28;19977;-89
2023/07/17 08:32:21;;;;;;;;;;;19.50;62.40;;;;;;4123452;28;19922;-87
2023/07/17 08:34:23;;;;;;;;;;;19.40;62.20;;;;;;4132607;28;19922;-89
2023/07/17 08:36:30;;;;;;;;;;;19.40;62.60;;;;;;4151170;28;19921;-90
2023/07/17 08:38:34;;;;;;;;;;;19.30;62.30;;;;;;4145451;28;19922;-90
2023/07/17 08:40:53;;;;;;;;;;;19.30;62.20;;;;;;4124850;28;19975;-89
2023/07/17 08:42:55;;;;;;;;;;;19.20;61.70;;;;;;4127510;28;20425;-90
2023/07/17 08:44:56;;;;;;;;;;;19.20;62.00;;;;;;4137678;28;19925;-91
2023/07/17 08:46:58;;;;;;;;;;;19.30;61.10;;;;;;4101306;28;19914;-90
2023/07/17 08:49:00;;;;;;;;;;;19.30;60.50;;;;;;4113245;28;20361;-91
2023/07/17 08:51:02;;;;;;;;;;;19.20;61.00;;;;;;4116875;28;20681;-88
2023/07/17 08:59:36;;;;;;;;;;;19.30;58.70;;;;;;4115587;28;19940;-87
2023/07/17 09:21:29;;;;;;;;;;;19.70;59.10;;;;;;4057560;29;20304;-87
2023/07/17 09:24:36;;;;;;;;;;;19.80;59.40;;;;;;4077113;29;19966;-86
2023/07/17 09:26:59;;;;;;;;;;;19.80;59.30;;;;;;4090141;28;20334;-90
2023/07/17 09:29:13;;;;;;;;;;;19.90;59.40;;;;;;4119616;28;19914;-90
2023/07/17 09:34:18;;;;;;;;;;;20.00;59.60;;;;;;4053913;29;20170;-90
2023/07/17 09:36:21;;;;;;;;;;;20.00;60.90;;;;;;4102088;28;19922;-89
2023/07/17 09:38:23;;;;;;;;;;;20.00;60.80;;;;;;4123290;28;20436;-89
2023/07/17 09:40:25;;;;;;;;;;;20.00;60.40;;;;;;4138160;28;19918;-86
2023/07/17 09:42:30;;;;;;;;;;;20.00;60.40;;;;;;4134139;28;19917;-89
2023/07/17 09:44:31;;;;;;;;;;;20.00;60.50;;;;;;4115817;28;19922;-89
2023/07/17 09:46:38;;;;;;;;;;;20.00;60.30;;;;;;4134658;28;19921;-86
2023/07/17 09:48:41;;;;;;;;;;;20.00;60.40;;;;;;4118068;28;19914;-90
2023/07/17 09:50:42;;;;;;;;;;;20.00;60.80;;;;;;4136405;28;19953;-88
2023/07/17 09:53:04;;;;;;;;;;;20.10;60.40;;;;;;4133476;28;19917;-88
2023/07/17 09:55:31;;;;;;;;;;;20.10;59.80;;;;;;4132289;28;20615;-88
2023/07/17 10:00:33;;;;;;;;;;;20.10;59.60;;;;;;4135410;28;19917;-87
2023/07/17 10:02:53;;;;;;;;;;;20.00;59.50;;;;;;4131090;28;19921;-89
2023/07/17 10:05:15;;;;;;;;;;;20.10;59.20;;;;;;4131405;28;20576;-89
2023/07/17 10:07:38;;;;;;;;;;;20.00;59.10;;;;;;4134712;28;19952;-88
2023/07/17 10:09:59;;;;;;;;;;;20.10;58.90;;;;;;4131400;28;20793;-90
2023/07/17 10:12:00;;;;;;;;;;;20.00;58.50;;;;;;4128598;28;19976;-87
2023/07/17 10:14:01;;;;;;;;;;;19.90;58.30;;;;;;4131731;28;19957;-86
2023/07/17 10:16:01;;;;;;;;;;;20.00;58.60;;;;;;4133038;28;19948;-86
2023/07/17 10:18:06;;;;;;;;;;;19.90;59.00;;;;;;4136528;28;20101;-89
2023/07/17 10:20:51;;;;;;;;;;;19.90;58.60;;;;;;4136860;28;20320;-88
2023/07/17 10:22:52;;;;;;;;;;;19.90;57.50;;;;;;4135905;28;20500;-88
2023/07/17 10:24:54;;;;;;;;;;;20.00;56.50;;;;;;4136022;28;19957;-90
2023/07/17 10:26:57;;;;;;;;;;;20.00;56.50;;;;;;4134523;28;21510;-88
2023/07/17 10:29:00;;;;;;;;;;;20.10;57.10;;;;;;4135024;28;20640;-88
2023/07/17 10:33:06;;;;;;;;;;;20.20;57.10;;;;;;4337915;22;19975;-86
2023/07/17 10:35:18;;;;;;;;;;;20.30;57.20;;;;;;4132495;28;19918;-89
2023/07/17 10:37:54;;;;;;;;;;;20.30;55.60;;;;;;4152273;28;19923;-88
2023/07/17 10:40:05;;;;;;;;;;;20.40;55.90;;;;;;4135191;28;19924;-89
2023/07/17 10:47:35;;;;;;;;;;;20.60;54.80;;;;;;4134352;28;19917;-87
2023/07/17 10:50:03;;;;;;;;;;;20.70;54.80;;;;;;4137579;28;20526;-90
2023/07/17 10:52:40;;;;;;;;;;;20.70;55.10;;;;;;4146309;28;20177;-88
2023/07/17 10:55:04;;;;;;;;;;;20.90;54.50;;;;;;4120000;28;20158;-89
2023/07/17 10:57:25;;;;;;;;;;;21.00;55.20;;;;;;4122533;28;19973;-88
2023/07/17 10:59:46;;;;;;;;;;;21.10;55.70;;;;;;4125849;28;19917;-87
2023/07/17 11:02:09;;;;;;;;;;;21.20;54.80;;;;;;4121724;28;20483;-88
2023/07/17 11:04:32;;;;;;;;;;;21.30;53.20;;;;;;4132479;28;19914;-89
2023/07/17 11:07:05;;;;;;;;;;;21.30;54.10;;;;;;4131421;28;19917;-87
2023/07/17 11:09:27;;;;;;;;;;;21.50;53.40;;;;;;4131527;28;19922;-90
2023/07/17 11:11:48;;;;;;;;;;;21.50;52.70;;;;;;4132216;28;21354;-90
2023/07/17 11:17:01;;;;;;;;;;;21.70;53.20;;;;;;4213714;22;19930;-88
2023/07/17 11:19:26;;;;;;;;;;;21.80;52.80;;;;;;4144756;28;19928;-87
2023/07/17 11:21:27;;;;;;;;;;;21.90;52.40;;;;;;4125629;28;19914;-86
2023/07/17 11:23:27;;;;;;;;;;;21.90;51.80;;;;;;4123708;28;19922;-90
2023/07/17 11:25:32;;;;;;;;;;;21.90;51.60;;;;;;4116975;28;19973;-88
2023/07/17 11:28:08;;;;;;;;;;;21.90;51.70;;;;;;4119119;28;20368;-88
2023/07/17 11:30:29;;;;;;;;;;;22.00;50.40;;;;;;4118490;28;19930;-85
2023/07/17 11:32:34;;;;;;;;;;;21.90;49.50;;;;;;4109649;28;19957;-89
2023/07/17 11:34:58;;;;;;;;;;;21.80;49.10;;;;;;4122266;28;19929;-89
2023/07/17 11:37:29;;;;;;;;;;;21.70;49.70;;;;;;4124179;28;19926;-88
2023/07/17 11:43:14;;;;;;;;;;;21.40;50.90;;;;;;4109238;28;19968;-88
2023/07/17 11:45:37;;;;;;;;;;;21.30;51.90;;;;;;4120669;28;19980;-89
2023/07/17 11:47:58;;;;;;;;;;;21.20;52.10;;;;;;4105067;28;19918;-86
2023/07/17 11:49:58;;;;;;;;;;;21.10;52.30;;;;;;4121569;28;19922;-86
2023/07/17 11:52:22;;;;;;;;;;;21.00;52.90;;;;;;4268734;23;21239;-87
2023/07/17 11:54:43;;;;;;;;;;;20.80;53.20;;;;;;4134567;28;19924;-89
2023/07/17 11:57:07;;;;;;;;;;;20.70;53.20;;;;;;4257260;22;20068;-89
2023/07/17 11:59:28;;;;;;;;;;;20.60;53.90;;;;;;4147718;28;19932;-87
2023/07/17 12:01:48;;;;;;;;;;;20.50;55.20;;;;;;4146076;28;19947;-88
2023/07/17 12:04:38;;;;;;;;;;;20.40;55.50;;;;;;4137420;28;20560;-85
2023/07/17 12:07:01;;;;;;;;;;;20.30;56.90;;;;;;4133159;28;19924;-87
2023/07/17 12:09:22;;;;;;;;;;;20.20;58.70;;;;;;4131782;28;19914;-88
2023/07/17 12:11:44;;;;;;;;;;;20.20;58.60;;;;;;4137030;28;19921;-88
2023/07/17 12:14:05;;;;;;;;;;;20.20;58.20;;;;;;4138501;28;19927;-87
2023/07/17 12:16:28;;;;;;;;;;;20.20;57.90;;;;;;4133831;28;19960;-88
2023/07/17 12:18:52;;;;;;;;;;;20.20;57.40;;;;;;4133695;28;19991;-86
2023/07/17 12:20:52;;;;;;;;;;;20.30;57.30;;;;;;4153504;28;19980;-88
2023/07/17 12:22:57;;;;;;;;;;;20.30;56.20;;;;;;4138240;28;19935;-88
2023/07/17 12:24:59;;;;;;;;;;;20.30;56.00;;;;;;4123468;28;19924;-89
2023/07/17 12:27:02;;;;;;;;;;;20.30;56.10;;;;;;4139536;28;20160;-88
2023/07/17 12:29:03;;;;;;;;;;;20.30;55.80;;;;;;4136147;28;19971;-85
2023/07/17 12:31:07;;;;;;;;;;;20.30;55.60;;;;;;4136014;28;19921;-86
2023/07/17 12:33:07;;;;;;;;;;;20.40;55.00;;;;;;4135541;28;20375;-88
2023/07/17 12:35:08;;;;;;;;;;;20.40;55.50;;;;;;4136840;28;19922;-88
2023/07/17 12:37:18;;;;;;;;;;;20.40;55.60;;;;;;4132394;28;19918;-89
2023/07/17 12:39:25;;;;;;;;;;;20.40;55.60;;;;;;4115511;28;19918;-87
2023/07/17 12:42:07;;;;;;;;;;;20.50;54.70;;;;;;4125566;28;20402;-88
2023/07/17 12:44:18;;;;;;;;;;;20.50;54.60;;;;;;4142041;28;20379;-87
2023/07/17 12:46:39;;;;;;;;;;;20.50;53.20;;;;;;4143528;28;20580;-89
2023/07/17 12:49:00;;;;;;;;;;;20.50;53.30;;;;;;4141550;28;19914;-88
2023/07/17 12:51:20;;;;;;;;;;;20.50;53.60;;;;;;4149604;28;19921;-88
2023/07/17 12:54:06;;;;;;;;;;;20.50;53.80;;;;;;4136435;28;19972;-88
2023/07/17 12:56:32;;;;;;;;;;;20.40;53.80;;;;;;4137567;28;19924;-88
2023/07/17 12:58:53;;;;;;;;;;;20.40;54.10;;;;;;4139378;28;20526;-87
2023/07/17 13:01:14;;;;;;;;;;;20.40;54.10;;;;;;4140111;28;19973;-87
2023/07/17 13:06:32;;;;;;;;;;;20.50;54.50;;;;;;4132896;28;19928;-87
2023/07/17 13:08:33;;;;;;;;;;;20.50;54.10;;;;;;4133309;28;20218;-86
2023/07/17 13:10:39;;;;;;;;;;;20.50;53.20;;;;;;4134677;28;19973;-87
2023/07/17 13:12:46;;;;;;;;;;;20.60;53.00;;;;;;4217424;22;19932;-87